Time;durP1;ratioP1;P1;durP2;ratioP2;P2;SDS_P1;SDS_P2;PMS_P1;PMS_P2;Temp;Humidity;BMP_temperature;BMP_pressure;BME280_temperature;BME280_humidity;BME280_pressure;Samples;Min_cycle;Max_cycle;Signal;HPM_P1;HPM_P2
2024/02/18 00:04:57;;;;;;;;;;;;;;;;;;5065984;28;20049;-86
2024/02/18 00:07:22;;;;;;;;;;;;;;;;;;5063405;28;19912;-91
2024/02/18 00:09:48;;;;;;;;;;;;;;;;;;5057440;28;20318;-90
2024/02/18 00:12:14;;;;;;;;;;;;;;;;;;5051230;28;19913;-87
2024/02/18 00:14:40;;;;;;;;;;;;;;;;;;5035845;28;19921;-91
2024/02/18 00:17:08;;;;;;;;;;;;;;;;;;5034943;28;19921;-90
2024/02/18 00:19:33;;;;;;;;;;;;;;;;;;5035964;28;19924;-88
2024/02/18 00:21:59;;;;;;;;;;;;;;;;;;5034578;28;19940;-89
2024/02/18 00:24:24;;;;;;;;;;;;;;;;;;5034466;28;20188;-89
2024/02/18 00:26:50;;;;;;;;;;;;;;;;;;5019251;28;19947;-83
2024/02/18 00:29:20;;;;;;;;;;;;;;;;;;5034502;28;19916;-87
2024/02/18 00:31:48;;;;;;;;;;;;;;;;;;5035956;28;19952;-89
2024/02/18 00:34:20;;;;;;;;;;;;;;;;;;5037243;28;19921;-87
2024/02/18 00:36:45;;;;;;;;;;;;;;;;;;5036428;28;19913;-89
2024/02/18 00:39:15;;;;;;;;;;;;;;;;;;5034243;28;19924;-88
2024/02/18 00:41:43;;;;;;;;;;;;;;;;;;5035838;28;19917;-89
2024/02/18 00:44:11;;;;;;;;;;;;;;;;;;5040914;28;20318;-88
2024/02/18 00:46:37;;;;;;;;;;;;;;;;;;5044112;28;20107;-87
2024/02/18 00:49:02;;;;;;;;;;;;;;;;;;5041476;28;19937;-88
2024/02/18 00:51:29;;;;;;;;;;;;;;;;;;5043854;28;19923;-88
2024/02/18 00:53:58;;;;;;;;;;;;;;;;;;5041592;28;19925;-89
2024/02/18 00:56:25;;;;;;;;;;;;;;;;;;5042471;28;19959;-87
2024/02/18 00:58:50;;;;;;;;;;;;;;;;;;5042730;28;19956;-88
2024/02/18 01:01:16;;;;;;;;;;;;;;;;;;5059320;28;19963;-88
2024/02/18 01:03:41;;;;;;;;;;;;;;;;;;5040805;28;19917;-88
2024/02/18 01:06:06;;;;;;;;;;;;;;;;;;5037641;28;20050;-87
2024/02/18 01:08:32;;;;;;;;;;;;;;;;;;5043686;28;19916;-91
2024/02/18 01:10:58;;;;;;;;;;;;;;;;;;5091653;28;20097;-87
2024/02/18 01:13:23;;;;;;;;;;;;;;;;;;5064295;28;19921;-87
2024/02/18 01:15:49;;;;;;;;;;;;;;;;;;5093567;28;19946;-86
2024/02/18 01:18:14;;;;;;;;;;;;;;;;;;5065007;28;19912;-87
2024/02/18 01:20:40;;;;;;;;;;;;;;;;;;5079410;28;19918;-87
2024/02/18 01:23:05;;;;;;;;;;;;;;;;;;5067809;28;19920;-90
2024/02/18 01:25:33;;;;;;;;;;;;;;;;;;5060996;28;19912;-89
2024/02/18 01:27:59;;;;;;;;;;;;;;;;;;5077280;28;19920;-88
2024/02/18 01:30:24;;;;;;;;;;;;;;;;;;5062578;28;19950;-88
2024/02/18 01:32:49;;;;;;;;;;;;;;;;;;5048894;28;20241;-88
2024/02/18 01:35:15;;;;;;;;;;;;;;;;;;5076325;28;20294;-88
2024/02/18 01:37:40;;;;;;;;;;;;;;;;;;5061178;28;19912;-87
2024/02/18 01:40:06;;;;;;;;;;;;;;;;;;5060135;28;19912;-88
2024/02/18 01:42:31;;;;;;;;;;;;;;;;;;5072718;28;19998;-87
2024/02/18 01:44:57;;;;;;;;;;;;;;;;;;5090690;28;19966;-90
2024/02/18 01:47:26;;;;;;;;;;;;;;;;;;5072653;28;20317;-87
2024/02/18 01:49:51;;;;;;;;;;;;;;;;;;5043360;28;19912;-89
2024/02/18 01:52:16;;;;;;;;;;;;;;;;;;5063466;28;19927;-89
2024/02/18 01:54:42;;;;;;;;;;;;;;;;;;5064308;28;19916;-88
2024/02/18 01:57:07;;;;;;;;;;;;;;;;;;5060689;28;19928;-87
2024/02/18 01:59:35;;;;;;;;;;;;;;;;;;5059356;28;19916;-88
2024/02/18 02:02:03;;;;;;;;;;;;;;;;;;5061751;28;19916;-91
2024/02/18 02:04:31;;;;;;;;;;;;;;;;;;5079516;28;20471;-88
2024/02/18 02:06:59;;;;;;;;;;;;;;;;;;5059109;28;19912;-91
2024/02/18 02:09:24;;;;;;;;;;;;;;;;;;5061638;28;20031;-89
2024/02/18 02:11:52;;;;;;;;;;;;;;;;;;5065438;28;20027;-87
2024/02/18 02:14:18;;;;;;;;;;;;;;;;;;5078728;28;19992;-89
2024/02/18 02:16:43;;;;;;;;;;;;;;;;;;5061945;28;19913;-87
2024/02/18 02:19:09;;;;;;;;;;;;;;;;;;5061777;28;20054;-89
2024/02/18 02:21:34;;;;;;;;;;;;;;;;;;5069408;28;19916;-85
2024/02/18 02:23:59;;;;;;;;;;;;;;;;;;5065891;28;19923;-86
2024/02/18 02:26:25;;;;;;;;;;;;;;;;;;5073046;28;19924;-89
2024/02/18 02:28:51;;;;;;;;;;;;;;;;;;5044186;28;20358;-88
2024/02/18 02:31:19;;;;;;;;;;;;;;;;;;5061118;28;20325;-89
2024/02/18 02:33:44;;;;;;;;;;;;;;;;;;5060606;28;19928;-89
2024/02/18 02:36:10;;;;;;;;;;;;;;;;;;5060696;28;19916;-88
2024/02/18 02:38:36;;;;;;;;;;;;;;;;;;5073057;28;20417;-90
2024/02/18 02:41:02;;;;;;;;;;;;;;;;;;5058808;28;19960;-87
2024/02/18 02:43:28;;;;;;;;;;;;;;;;;;5057789;28;20274;-87
2024/02/18 02:45:54;;;;;;;;;;;;;;;;;;5076459;28;19927;-88
2024/02/18 02:48:19;;;;;;;;;;;;;;;;;;5070701;28;20315;-89
2024/02/18 02:50:44;;;;;;;;;;;;;;;;;;5059357;28;19921;-88
2024/02/18 02:53:12;;;;;;;;;;;;;;;;;;5063212;28;19963;-89
2024/02/18 02:55:38;;;;;;;;;;;;;;;;;;5071847;28;19917;-90
2024/02/18 02:58:03;;;;;;;;;;;;;;;;;;5071725;28;20049;-87
2024/02/18 03:00:32;;;;;;;;;;;;;;;;;;5061850;28;19913;-87
2024/02/18 03:02:57;;;;;;;;;;;;;;;;;;5059593;28;20000;-93
2024/02/18 03:05:23;;;;;;;;;;;;;;;;;;5071310;28;19912;-88
2024/02/18 03:07:48;;;;;;;;;;;;;;;;;;5061394;28;19916;-88
2024/02/18 03:10:13;;;;;;;;;;;;;;;;;;5061542;28;19954;-88
2024/02/18 03:12:43;;;;;;;;;;;;;;;;;;5087888;28;19963;-87
2024/02/18 03:15:08;;;;;;;;;;;;;;;;;;5076504;28;19960;-88
2024/02/18 03:17:36;;;;;;;;;;;;;;;;;;5060718;28;20406;-87
2024/02/18 03:20:02;;;;;;;;;;;;;;;;;;5053263;28;19974;-88
2024/02/18 03:22:29;;;;;;;;;;;;;;;;;;5040056;28;19912;-88
2024/02/18 03:24:54;;;;;;;;;;;;;;;;;;5058637;28;19984;-90
2024/02/18 03:27:19;;;;;;;;;;;;;;;;;;5060715;28;20027;-87
2024/02/18 03:29:46;;;;;;;;;;;;;;;;;;5070514;28;19913;-90
2024/02/18 03:32:14;;;;;;;;;;;;;;;;;;5086652;28;21819;-90
2024/02/18 03:34:42;;;;;;;;;;;;;;;;;;5058115;28;19920;-89
2024/02/18 03:37:07;;;;;;;;;;;;;;;;;;5088700;28;19941;-88
2024/02/18 03:39:33;;;;;;;;;;;;;;;;;;5061792;28;19999;-90
2024/02/18 03:42:02;;;;;;;;;;;;;;;;;;5076370;28;19912;-88
2024/02/18 03:44:27;;;;;;;;;;;;;;;;;;5087932;28;19927;-88
2024/02/18 03:46:52;;;;;;;;;;;;;;;;;;5056776;28;20015;-89
2024/02/18 03:49:18;;;;;;;;;;;;;;;;;;5061786;28;19967;-90
2024/02/18 03:51:43;;;;;;;;;;;;;;;;;;5056546;28;19952;-89
2024/02/18 03:54:13;;;;;;;;;;;;;;;;;;5059134;28;20447;-88
2024/02/18 03:56:42;;;;;;;;;;;;;;;;;;5069263;28;19916;-89
2024/02/18 03:59:08;;;;;;;;;;;;;;;;;;5059654;28;19917;-89
2024/02/18 04:01:37;;;;;;;;;;;;;;;;;;5061032;28;19932;-86
2024/02/18 04:04:02;;;;;;;;;;;;;;;;;;5057931;28;19912;-86
2024/02/18 04:06:32;;;;;;;;;;;;;;;;;;5075975;28;20182;-91
2024/02/18 04:08:57;;;;;;;;;;;;;;;;;;5060133;28;19921;-89
2024/02/18 04:11:23;;;;;;;;;;;;;;;;;;5062298;28;19916;-89
2024/02/18 04:13:50;;;;;;;;;;;;;;;;;;5071337;28;19920;-89
2024/02/18 04:16:18;;;;;;;;;;;;;;;;;;5061613;28;19994;-89
2024/02/18 04:18:43;;;;;;;;;;;;;;;;;;5070003;28;20330;-92
2024/02/18 04:21:09;;;;;;;;;;;;;;;;;;5065836;28;19956;-88
2024/02/18 04:23:37;;;;;;;;;;;;;;;;;;5077437;28;19921;-87
2024/02/18 04:26:05;;;;;;;;;;;;;;;;;;5072091;28;20329;-87
2024/02/18 04:28:35;;;;;;;;;;;;;;;;;;5060419;28;19913;-87
2024/02/18 04:31:02;;;;;;;;;;;;;;;;;;5088708;28;19920;-91
2024/02/18 04:33:27;;;;;;;;;;;;;;;;;;5089133;28;20691;-86
2024/02/18 04:35:55;;;;;;;;;;;;;;;;;;5058012;28;19923;-88
2024/02/18 04:38:21;;;;;;;;;;;;;;;;;;5044291;28;19912;-87
2024/02/18 04:40:47;;;;;;;;;;;;;;;;;;5061180;28;19927;-87
2024/02/18 04:43:13;;;;;;;;;;;;;;;;;;5062812;28;20291;-88
2024/02/18 04:45:39;;;;;;;;;;;;;;;;;;5067047;28;20020;-87
2024/02/18 04:48:05;;;;;;;;;;;;;;;;;;5066558;28;19949;-87
2024/02/18 04:50:30;;;;;;;;;;;;;;;;;;5062692;28;19986;-88
2024/02/18 04:52:55;;;;;;;;;;;;;;;;;;5061775;28;19968;-90
2024/02/18 04:55:22;;;;;;;;;;;;;;;;;;5062378;28;19986;-89
2024/02/18 04:57:47;;;;;;;;;;;;;;;;;;5062378;28;19912;-89
2024/02/18 05:00:14;;;;;;;;;;;;;;;;;;5079235;28;19962;-89
2024/02/18 05:02:39;;;;;;;;;;;;;;;;;;5060989;28;19923;-88
2024/02/18 05:05:04;;;;;;;;;;;;;;;;;;5047068;28;20003;-90
2024/02/18 05:07:35;;;;;;;;;;;;;;;;;;5062742;28;20349;-89
2024/02/18 05:10:01;;;;;;;;;;;;;;;;;;5065970;28;19976;-89
2024/02/18 05:12:32;;;;;;;;;;;;;;;;;;5037442;28;19982;-93
2024/02/18 05:14:58;;;;;;;;;;;;;;;;;;5053342;28;20001;-87
2024/02/18 05:17:33;;;;;;;;;;;;;;;;;;5035732;28;19979;-91
2024/02/18 05:19:58;;;;;;;;;;;;;;;;;;5037682;28;21117;-91
2024/02/18 05:22:24;;;;;;;;;;;;;;;;;;5040740;28;19929;-89
2024/02/18 05:24:49;;;;;;;;;;;;;;;;;;5045243;28;19989;-90
2024/02/18 05:27:14;;;;;;;;;;;;;;;;;;5046007;28;19914;-87
2024/02/18 05:29:40;;;;;;;;;;;;;;;;;;5046611;28;19972;-89
2024/02/18 05:32:08;;;;;;;;;;;;;;;;;;5046933;28;19928;-88
2024/02/18 05:34:33;;;;;;;;;;;;;;;;;;5052076;28;19977;-87
2024/02/18 05:36:59;;;;;;;;;;;;;;;;;;5051339;28;20062;-88
2024/02/18 05:39:27;;;;;;;;;;;;;;;;;;5036317;28;19917;-87
2024/02/18 05:41:58;;;;;;;;;;;;;;;;;;5053873;28;19997;-89
2024/02/18 05:44:26;;;;;;;;;;;;;;;;;;5034500;28;19925;-89
2024/02/18 05:46:51;;;;;;;;;;;;;;;;;;5054148;28;19908;-87
2024/02/18 05:49:21;;;;;;;;;;;;;;;;;;5053147;28;19985;-89
2024/02/18 05:51:46;;;;;;;;;;;;;;;;;;5052229;28;19917;-89
2024/02/18 05:54:12;;;;;;;;;;;;;;;;;;5052515;28;19939;-86
2024/02/18 05:56:37;;;;;;;;;;;;;;;;;;5050981;28;20047;-88
2024/02/18 05:59:03;;;;;;;;;;;;;;;;;;5054677;28;19917;-88
2024/02/18 06:01:29;;;;;;;;;;;;;;;;;;5052862;28;19944;-87
2024/02/18 06:03:54;;;;;;;;;;;;;;;;;;5055762;28;19921;-90
2024/02/18 06:06:19;;;;;;;;;;;;;;;;;;5061851;28;19933;-89
2024/02/18 06:08:46;;;;;;;;;;;;;;;;;;5048451;28;19976;-89
2024/02/18 06:11:11;;;;;;;;;;;;;;;;;;5110246;28;19948;-85
2024/02/18 06:13:37;;;;;;;;;;;;;;;;;;5085611;28;19920;-87
2024/02/18 06:16:05;;;;;;;;;;;;;;;;;;5090304;28;19904;-89
2024/02/18 06:18:34;;;;;;;;;;;;;;;;;;5083423;28;19908;-89
2024/02/18 06:20:59;;;;;;;;;;;;;;;;;;5076314;28;20250;-89
2024/02/18 06:23:24;;;;;;;;;;;;;;;;;;5065606;28;19909;-88
2024/02/18 06:25:50;;;;;;;;;;;;;;;;;;5065450;28;20003;-88
2024/02/18 06:28:16;;;;;;;;;;;;;;;;;;5067143;28;19912;-88
2024/02/18 06:30:45;;;;;;;;;;;;;;;;;;5092274;28;19924;-88
2024/02/18 06:33:11;;;;;;;;;;;;;;;;;;5062764;28;19916;-88
2024/02/18 06:35:38;;;;;;;;;;;;;;;;;;5060148;28;19928;-88
2024/02/18 06:38:04;;;;;;;;;;;;;;;;;;5061780;28;19923;-89
2024/02/18 06:40:30;;;;;;;;;;;;;;;;;;5073469;28;19913;-90
2024/02/18 06:45:34;;;;;;;;;;;;;;;;;;5018465;28;20366;-87
2024/02/18 06:47:59;;;;;;;;;;;;;;;;;;4987628;28;19914;-88
2024/02/18 06:50:26;;;;;;;;;;;;;;;;;;4995474;28;19913;-88
2024/02/18 06:52:51;;;;;;;;;;;;;;;;;;4987115;28;20000;-88
2024/02/18 06:55:17;;;;;;;;;;;;;;;;;;5022738;28;19948;-87
2024/02/18 06:57:43;;;;;;;;;;;;;;;;;;5003223;28;19947;-87
2024/02/18 07:00:08;;;;;;;;;;;;;;;;;;4989165;28;19913;-84
2024/02/18 07:02:39;;;;;;;;;;;;;;;;;;4986429;28;19913;-86
2024/02/18 07:05:04;;;;;;;;;;;;;;;;;;4985959;28;19924;-87
2024/02/18 07:07:30;;;;;;;;;;;;;;;;;;5000339;28;20028;-88
2024/02/18 07:09:55;;;;;;;;;;;;;;;;;;5006512;28;20257;-87
2024/02/18 07:12:21;;;;;;;;;;;;;;;;;;5036447;28;19913;-89
2024/02/18 07:14:49;;;;;;;;;;;;;;;;;;5051136;28;20285;-86
2024/02/18 07:17:19;;;;;;;;;;;;;;;;;;5050920;28;20248;-90
2024/02/18 07:19:44;;;;;;;;;;;;;;;;;;5052254;28;19920;-87
2024/02/18 07:22:10;;;;;;;;;;;;;;;;;;5036683;28;20353;-88
2024/02/18 07:24:40;;;;;;;;;;;;;;;;;;5035041;28;19917;-88
2024/02/18 07:27:07;;;;;;;;;;;;;;;;;;5068613;28;19916;-88
2024/02/18 07:29:32;;;;;;;;;;;;;;;;;;5035669;28;20239;-88
2024/02/18 07:31:58;;;;;;;;;;;;;;;;;;5051442;28;20007;-90
2024/02/18 07:34:25;;;;;;;;;;;;;;;;;;5052399;28;19917;-89
2024/02/18 07:37:10;;;;;;;;;;;;;;;;;;5052421;28;19986;-87
2024/02/18 07:39:36;;;;;;;;;;;;;;;;;;5086309;28;19959;-87
2024/02/18 07:42:01;;;;;;;;;;;;;;;;;;5070168;28;19913;-88
2024/02/18 07:44:29;;;;;;;;;;;;;;;;;;5051689;28;20295;-88
2024/02/18 07:46:57;;;;;;;;;;;;;;;;;;5051707;28;19927;-87
2024/02/18 07:49:22;;;;;;;;;;;;;;;;;;5068138;28;19912;-87
2024/02/18 07:51:48;;;;;;;;;;;;;;;;;;5050955;28;20211;-88
2024/02/18 07:54:25;;;;;;;;;;;;;;;;;;5068314;28;19917;-87
2024/02/18 07:56:51;;;;;;;;;;;;;;;;;;5084422;28;19916;-88
2024/02/18 07:59:21;;;;;;;;;;;;;;;;;;5035630;28;19942;-90
2024/02/18 08:01:47;;;;;;;;;;;;;;;;;;5083783;28;19931;-87
2024/02/18 08:04:22;;;;;;;;;;;;;;;;;;5035578;28;19974;-88
2024/02/18 08:06:47;;;;;;;;;;;;;;;;;;5037094;28;19927;-87
2024/02/18 08:09:16;;;;;;;;;;;;;;;;;;5075313;28;19912;-86
2024/02/18 08:11:45;;;;;;;;;;;;;;;;;;5087132;28;19920;-86
2024/02/18 08:14:14;;;;;;;;;;;;;;;;;;5065919;28;19921;-87
2024/02/18 08:16:39;;;;;;;;;;;;;;;;;;5067828;28;19966;-85
2024/02/18 08:19:04;;;;;;;;;;;;;;;;;;5052839;28;20010;-86
2024/02/18 08:21:34;;;;;;;;;;;;;;;;;;5078948;28;19912;-88
2024/02/18 08:23:59;;;;;;;;;;;;;;;;;;5096026;28;19924;-87
2024/02/18 08:26:29;;;;;;;;;;;;;;;;;;5071860;28;19923;-84
2024/02/18 08:28:55;;;;;;;;;;;;;;;;;;5065838;28;19920;-86
2024/02/18 08:31:21;;;;;;;;;;;;;;;;;;5063560;28;20340;-88
2024/02/18 08:33:52;;;;;;;;;;;;;;;;;;5062880;28;19923;-89
2024/02/18 08:36:19;;;;;;;;;;;;;;;;;;5062909;28;20278;-88
2024/02/18 08:38:49;;;;;;;;;;;;;;;;;;5076196;28;19996;-89
2024/02/18 08:41:14;;;;;;;;;;;;;;;;;;5060344;28;21786;-89
2024/02/18 08:43:40;;;;;;;;;;;;;;;;;;5062446;28;19916;-89
2024/02/18 08:46:06;;;;;;;;;;;;;;;;;;5062254;28;19943;-88
2024/02/18 08:51:29;;;;;;;;;;;;;;;;;;4975762;28;20024;-90
2024/02/18 08:53:54;;;;;;;;;;;;;;;;;;4959403;28;20024;-88
2024/02/18 08:56:20;;;;;;;;;;;;;;;;;;4962423;28;19915;-89
2024/02/18 08:58:45;;;;;;;;;;;;;;;;;;4961575;28;20413;-86
2024/02/18 09:01:11;;;;;;;;;;;;;;;;;;4962342;28;19918;-89
2024/02/18 09:03:37;;;;;;;;;;;;;;;;;;4959867;28;20407;-86
2024/02/18 09:06:09;;;;;;;;;;;;;;;;;;4961860;28;19918;-87
2024/02/18 09:08:35;;;;;;;;;;;;;;;;;;4958783;28;19918;-87
2024/02/18 09:11:00;;;;;;;;;;;;;;;;;;4950207;28;20313;-91
2024/02/18 09:13:26;;;;;;;;;;;;;;;;;;4969962;28;19950;-88
2024/02/18 09:15:51;;;;;;;;;;;;;;;;;;4945066;28;19972;-86
2024/02/18 09:18:18;;;;;;;;;;;;;;;;;;4946111;28;19989;-89
2024/02/18 09:20:43;;;;;;;;;;;;;;;;;;4961502;28;20395;-89
2024/02/18 09:23:08;;;;;;;;;;;;;;;;;;4965567;28;19918;-85
2024/02/18 09:25:35;;;;;;;;;;;;;;;;;;4978529;28;19926;-89
2024/02/18 09:28:03;;;;;;;;;;;;;;;;;;4962673;28;19989;-86
2024/02/18 09:30:28;;;;;;;;;;;;;;;;;;4975158;28;20310;-87
2024/02/18 09:32:56;;;;;;;;;;;;;;;;;;4958961;28;19945;-88
2024/02/18 09:35:21;;;;;;;;;;;;;;;;;;4964074;28;20017;-87
2024/02/18 09:37:47;;;;;;;;;;;;;;;;;;4962778;28;19929;-86
2024/02/18 09:40:12;;;;;;;;;;;;;;;;;;4958437;28;19914;-88
2024/02/18 09:42:38;;;;;;;;;;;;;;;;;;4978040;28;19914;-88
2024/02/18 09:45:05;;;;;;;;;;;;;;;;;;4977306;28;19929;-86
2024/02/18 09:47:30;;;;;;;;;;;;;;;;;;4959132;28;19934;-90
2024/02/18 09:49:58;;;;;;;;;;;;;;;;;;5108899;23;20060;-70
2024/02/18 09:52:24;;;;;;;;;;;;;;;;;;4982295;28;19918;-72
2024/02/18 09:54:54;;;;;;;;;;;;;;;;;;4979604;28;19921;-70
2024/02/18 09:57:20;;;;;;;;;;;;;;;;;;4967826;28;19980;-71
2024/02/18 09:59:45;;;;;;;;;;;;;;;;;;4966519;28;20516;-71
2024/02/18 10:02:11;;;;;;;;;;;;;;;;;;4965834;28;20383;-70
2024/02/18 10:04:38;;;;;;;;;;;;;;;;;;4967605;28;20555;-74
2024/02/18 10:07:04;;;;;;;;;;;;;;;;;;4981250;28;19964;-74
2024/02/18 10:09:31;;;;;;;;;;;;;;;;;;4966710;28;19949;-71
2024/02/18 10:11:56;;;;;;;;;;;;;;;;;;4966889;28;19928;-71
2024/02/18 10:14:21;;;;;;;;;;;;;;;;;;4966873;28;19966;-70
2024/02/18 10:16:49;;;;;;;;;;;;;;;;;;4982892;28;20048;-69
2024/02/18 10:19:17;;;;;;;;;;;;;;;;;;4967990;28;20036;-71
2024/02/18 10:21:44;;;;;;;;;;;;;;;;;;4981616;28;19918;-73
2024/02/18 10:24:09;;;;;;;;;;;;;;;;;;4968258;28;20034;-73
2024/02/18 10:26:34;;;;;;;;;;;;;;;;;;4981821;28;19962;-72
2024/02/18 10:29:00;;;;;;;;;;;;;;;;;;4966711;28;20137;-75
2024/02/18 10:31:25;;;;;;;;;;;;;;;;;;4967132;28;19925;-70
2024/02/18 10:33:53;;;;;;;;;;;;;;;;;;4983080;28;19972;-69
2024/02/18 10:36:18;;;;;;;;;;;;;;;;;;4982720;28;19918;-69
2024/02/18 10:38:44;;;;;;;;;;;;;;;;;;4980278;28;20277;-75
2024/02/18 10:41:10;;;;;;;;;;;;;;;;;;4980855;28;19925;-71
2024/02/18 10:43:35;;;;;;;;;;;;;;;;;;4983008;28;19917;-69
2024/02/18 10:46:01;;;;;;;;;;;;;;;;;;4964495;28;20393;-70
2024/02/18 10:48:45;;;;;;;;;;;;;;;;;;4981947;28;20675;-69
2024/02/18 10:51:11;;;;;;;;;;;;;;;;;;4980060;28;19929;-72
2024/02/18 10:53:38;;;;;;;;;;;;;;;;;;4982611;28;20024;-70
2024/02/18 10:56:07;;;;;;;;;;;;;;;;;;4981450;28;20040;-70
2024/02/18 10:58:32;;;;;;;;;;;;;;;;;;4965117;28;20391;-70
2024/02/18 11:01:00;;;;;;;;;;;;;;;;;;4964506;28;19925;-69
2024/02/18 11:03:29;;;;;;;;;;;;;;;;;;4958199;28;19921;-70
2024/02/18 11:05:58;;;;;;;;;;;;;;;;;;4965161;28;19917;-69
2024/02/18 11:08:23;;;;;;;;;;;;;;;;;;4963920;28;20011;-70
2024/02/18 11:10:49;;;;;;;;;;;;;;;;;;4982369;28;20280;-70
2024/02/18 11:13:14;;;;;;;;;;;;;;;;;;4983518;28;19921;-70
2024/02/18 11:15:39;;;;;;;;;;;;;;;;;;4963856;28;19917;-69
2024/02/18 11:18:08;;;;;;;;;;;;;;;;;;4981967;28;20561;-70
2024/02/18 11:20:36;;;;;;;;;;;;;;;;;;4981673;28;20357;-68
2024/02/18 11:23:01;;;;;;;;;;;;;;;;;;4956515;28;20052;-70
2024/02/18 11:25:27;;;;;;;;;;;;;;;;;;4980534;28;19925;-69
2024/02/18 11:27:52;;;;;;;;;;;;;;;;;;4982980;28;20525;-71
2024/02/18 11:30:22;;;;;;;;;;;;;;;;;;4961662;28;19918;-69
2024/02/18 11:32:47;;;;;;;;;;;;;;;;;;4982129;28;20532;-69
2024/02/18 11:35:13;;;;;;;;;;;;;;;;;;4949862;28;19933;-71
2024/02/18 11:37:40;;;;;;;;;;;;;;;;;;4981611;28;19935;-74
2024/02/18 11:40:09;;;;;;;;;;;;;;;;;;4982520;28;19995;-70
2024/02/18 11:42:35;;;;;;;;;;;;;;;;;;4981463;28;19969;-69
2024/02/18 11:45:01;;;;;;;;;;;;;;;;;;4965225;28;19918;-68
2024/02/18 11:47:26;;;;;;;;;;;;;;;;;;4981113;28;20220;-68
2024/02/18 11:49:55;;;;;;;;;;;;;;;;;;4980421;28;19926;-69
2024/02/18 11:52:20;;;;;;;;;;;;;;;;;;4966255;28;19972;-69
2024/02/18 11:54:45;;;;;;;;;;;;;;;;;;4985529;28;20427;-70
2024/02/18 11:57:13;;;;;;;;;;;;;;;;;;4967861;28;19917;-69
2024/02/18 11:59:38;;;;;;;;;;;;;;;;;;4969710;28;19917;-69
2024/02/18 12:02:08;;;;;;;;;;;;;;;;;;4984991;28;19922;-68
2024/02/18 12:04:34;;;;;;;;;;;;;;;;;;4985469;28;19918;-69
2024/02/18 12:06:59;;;;;;;;;;;;;;;;;;4987358;28;19971;-69
2024/02/18 12:09:26;;;;;;;;;;;;;;;;;;4985099;28;19921;-69
2024/02/18 12:11:51;;;;;;;;;;;;;;;;;;4984973;28;20176;-68
2024/02/18 12:14:20;;;;;;;;;;;;;;;;;;4986517;28;19921;-69
2024/02/18 12:16:45;;;;;;;;;;;;;;;;;;4969018;28;19922;-67
2024/02/18 12:19:13;;;;;;;;;;;;;;;;;;4970640;28;20277;-70
2024/02/18 12:21:38;;;;;;;;;;;;;;;;;;4988053;28;19921;-68
2024/02/18 12:24:06;;;;;;;;;;;;;;;;;;4987437;28;20830;-69
2024/02/18 12:26:31;;;;;;;;;;;;;;;;;;4969247;28;19925;-70
2024/02/18 12:28:59;;;;;;;;;;;;;;;;;;4987185;28;20935;-69
2024/02/18 12:31:26;;;;;;;;;;;;;;;;;;4987297;28;19948;-69
2024/02/18 12:33:54;;;;;;;;;;;;;;;;;;4987665;28;19922;-72
2024/02/18 12:36:19;;;;;;;;;;;;;;;;;;4987969;28;19924;-70
2024/02/18 12:38:45;;;;;;;;;;;;;;;;;;4971616;28;20513;-68
2024/02/18 12:41:13;;;;;;;;;;;;;;;;;;4986981;28;19945;-68
2024/02/18 12:43:38;;;;;;;;;;;;;;;;;;4954850;28;20016;-70
2024/02/18 12:46:04;;;;;;;;;;;;;;;;;;4967666;28;20144;-73
2024/02/18 12:48:29;;;;;;;;;;;;;;;;;;4986003;28;19921;-70
2024/02/18 12:50:54;;;;;;;;;;;;;;;;;;4966595;28;19932;-71
2024/02/18 12:53:22;;;;;;;;;;;;;;;;;;4970045;28;19929;-70
2024/02/18 12:55:50;;;;;;;;;;;;;;;;;;4965420;28;19921;-69
2024/02/18 12:58:18;;;;;;;;;;;;;;;;;;4984466;28;19918;-70
2024/02/18 13:00:48;;;;;;;;;;;;;;;;;;4968076;28;19921;-69
2024/02/18 13:03:18;;;;;;;;;;;;;;;;;;4985197;28;20032;-74
2024/02/18 13:05:43;;;;;;;;;;;;;;;;;;4985134;28;20434;-70
2024/02/18 13:08:11;;;;;;;;;;;;;;;;;;4974582;28;19917;-69
2024/02/18 13:10:36;;;;;;;;;;;;;;;;;;4982659;28;19991;-69
2024/02/18 13:13:04;;;;;;;;;;;;;;;;;;4985475;28;20127;-69
2024/02/18 13:15:31;;;;;;;;;;;;;;;;;;4967049;28;19929;-69
2024/02/18 13:17:59;;;;;;;;;;;;;;;;;;4985031;28;19921;-70
2024/02/18 13:20:24;;;;;;;;;;;;;;;;;;4966497;28;19918;-68
2024/02/18 13:22:52;;;;;;;;;;;;;;;;;;4984459;28;20008;-69
2024/02/18 13:25:18;;;;;;;;;;;;;;;;;;4974252;28;19923;-69
2024/02/18 13:27:45;;;;;;;;;;;;;;;;;;4983561;28;19922;-69
2024/02/18 13:30:11;;;;;;;;;;;;;;;;;;4965565;28;19922;-68
2024/02/18 13:32:38;;;;;;;;;;;;;;;;;;4965797;28;19918;-69
2024/02/18 13:35:03;;;;;;;;;;;;;;;;;;4965836;28;19936;-68
2024/02/18 13:37:31;;;;;;;;;;;;;;;;;;4984248;28;19921;-68
2024/02/18 13:39:57;;;;;;;;;;;;;;;;;;4966635;28;19972;-69
2024/02/18 13:42:23;;;;;;;;;;;;;;;;;;4965509;28;19917;-70
2024/02/18 13:44:48;;;;;;;;;;;;;;;;;;4983304;28;19941;-69
2024/02/18 13:47:20;;;;;;;;;;;;;;;;;;4983112;28;19932;-69
2024/02/18 13:49:48;;;;;;;;;;;;;;;;;;4968503;28;20024;-69
2024/02/18 13:52:14;;;;;;;;;;;;;;;;;;4965469;28;19930;-69
2024/02/18 13:54:39;;;;;;;;;;;;;;;;;;4965552;28;19995;-68
2024/02/18 13:57:07;;;;;;;;;;;;;;;;;;4984076;28;20530;-69
2024/02/18 13:59:35;;;;;;;;;;;;;;;;;;4982526;28;19964;-69
2024/02/18 14:02:01;;;;;;;;;;;;;;;;;;4984736;28;20009;-68
2024/02/18 14:04:29;;;;;;;;;;;;;;;;;;4965917;28;20475;-69
2024/02/18 14:06:56;;;;;;;;;;;;;;;;;;4984091;28;19918;-68
2024/02/18 14:09:22;;;;;;;;;;;;;;;;;;4966329;28;20593;-69
2024/02/18 14:11:47;;;;;;;;;;;;;;;;;;4984426;28;20016;-69
2024/02/18 14:14:15;;;;;;;;;;;;;;;;;;4965440;28;20383;-69
2024/02/18 14:16:41;;;;;;;;;;;;;;;;;;4985197;28;19987;-68
2024/02/18 14:19:10;;;;;;;;;;;;;;;;;;4966386;28;19929;-68
2024/02/18 14:21:39;;;;;;;;;;;;;;;;;;4968687;28;19924;-69
2024/02/18 14:24:04;;;;;;;;;;;;;;;;;;4981775;28;19922;-71
2024/02/18 14:26:32;;;;;;;;;;;;;;;;;;4967342;28;19960;-70
2024/02/18 14:29:01;;;;;;;;;;;;;;;;;;4951569;28;20013;-70
2024/02/18 14:31:26;;;;;;;;;;;;;;;;;;4950171;28;20028;-69
2024/02/18 14:33:54;;;;;;;;;;;;;;;;;;4951446;28;19928;-68
2024/02/18 14:36:22;;;;;;;;;;;;;;;;;;4982970;28;19921;-69
2024/02/18 14:38:50;;;;;;;;;;;;;;;;;;4983748;28;20395;-69
2024/02/18 14:41:18;;;;;;;;;;;;;;;;;;4980620;28;19921;-68
2024/02/18 14:43:43;;;;;;;;;;;;;;;;;;4967108;28;19941;-70
2024/02/18 14:46:11;;;;;;;;;;;;;;;;;;4964933;28;19929;-68
2024/02/18 14:48:39;;;;;;;;;;;;;;;;;;4966105;28;20372;-69
2024/02/18 14:51:06;;;;;;;;;;;;;;;;;;4967069;28;20008;-70
2024/02/18 14:53:34;;;;;;;;;;;;;;;;;;4982277;28;19926;-70
2024/02/18 14:56:01;;;;;;;;;;;;;;;;;;4961136;28;20262;-69
2024/02/18 14:58:26;;;;;;;;;;;;;;;;;;4983179;28;19980;-70
2024/02/18 15:00:52;;;;;;;;;;;;;;;;;;4982942;28;19932;-72
2024/02/18 15:03:19;;;;;;;;;;;;;;;;;;4985057;28;20212;-70
2024/02/18 15:05:47;;;;;;;;;;;;;;;;;;4957595;28;19928;-71
2024/02/18 15:08:15;;;;;;;;;;;;;;;;;;4965207;28;19925;-70
2024/02/18 15:10:40;;;;;;;;;;;;;;;;;;4964642;28;19945;-70
2024/02/18 15:13:11;;;;;;;;;;;;;;;;;;4983817;28;20522;-71
2024/02/18 15:15:36;;;;;;;;;;;;;;;;;;4983234;28;20132;-70
2024/02/18 15:18:04;;;;;;;;;;;;;;;;;;4964190;28;19918;-71
2024/02/18 15:20:30;;;;;;;;;;;;;;;;;;4982108;28;20008;-70
2024/02/18 15:22:55;;;;;;;;;;;;;;;;;;4984020;28;19918;-73
2024/02/18 15:25:26;;;;;;;;;;;;;;;;;;4980714;28;20282;-71
2024/02/18 15:27:54;;;;;;;;;;;;;;;;;;4983390;28;19917;-72
2024/02/18 15:30:22;;;;;;;;;;;;;;;;;;4982472;28;20366;-70
2024/02/18 15:32:51;;;;;;;;;;;;;;;;;;4965239;28;19921;-71
2024/02/18 15:35:18;;;;;;;;;;;;;;;;;;4969429;28;21330;-71
2024/02/18 15:37:43;;;;;;;;;;;;;;;;;;4982222;28;19968;-71
2024/02/18 15:40:11;;;;;;;;;;;;;;;;;;4962373;28;19929;-71
2024/02/18 15:42:37;;;;;;;;;;;;;;;;;;4983618;28;19922;-72
2024/02/18 15:45:02;;;;;;;;;;;;;;;;;;4964563;28;19918;-72
2024/02/18 15:47:27;;;;;;;;;;;;;;;;;;4963984;28;19918;-72
2024/02/18 15:49:53;;;;;;;;;;;;;;;;;;4984498;28;19933;-70
2024/02/18 15:52:18;;;;;;;;;;;;;;;;;;4982586;28;20759;-71
2024/02/18 15:54:43;;;;;;;;;;;;;;;;;;4963522;28;21575;-70
2024/02/18 15:57:11;;;;;;;;;;;;;;;;;;4954577;28;19918;-71
2024/02/18 15:59:36;;;;;;;;;;;;;;;;;;4983470;28;20020;-71
2024/02/18 16:02:02;;;;;;;;;;;;;;;;;;4983577;28;19929;-71
2024/02/18 16:04:27;;;;;;;;;;;;;;;;;;4965622;28;19926;-72
2024/02/18 16:06:53;;;;;;;;;;;;;;;;;;4983396;28;20488;-71
2024/02/18 16:09:18;;;;;;;;;;;;;;;;;;4951744;28;19917;-72
2024/02/18 16:11:46;;;;;;;;;;;;;;;;;;4981691;28;19917;-71
2024/02/18 16:14:13;;;;;;;;;;;;;;;;;;4983457;28;20418;-71
2024/02/18 16:16:38;;;;;;;;;;;;;;;;;;4955604;28;19932;-71
2024/02/18 16:19:04;;;;;;;;;;;;;;;;;;4983564;28;19921;-71
2024/02/18 16:21:32;;;;;;;;;;;;;;;;;;4965912;28;19918;-71
2024/02/18 16:24:00;;;;;;;;;;;;;;;;;;4981890;28;19927;-71
2024/02/18 16:26:25;;;;;;;;;;;;;;;;;;4981568;28;20435;-71
2024/02/18 16:28:50;;;;;;;;;;;;;;;;;;4981673;28;19922;-71
2024/02/18 16:31:16;;;;;;;;;;;;;;;;;;4982652;28;19922;-71
2024/02/18 16:33:43;;;;;;;;;;;;;;;;;;4984489;28;19928;-71
2024/02/18 16:36:09;;;;;;;;;;;;;;;;;;4962208;28;20104;-71
2024/02/18 16:38:34;;;;;;;;;;;;;;;;;;4967668;28;20157;-71
2024/02/18 16:41:00;;;;;;;;;;;;;;;;;;4984871;28;20057;-72
2024/02/18 16:43:26;;;;;;;;;;;;;;;;;;4970125;28;19972;-71
2024/02/18 16:45:51;;;;;;;;;;;;;;;;;;4966556;28;20096;-71
2024/02/18 16:48:16;;;;;;;;;;;;;;;;;;4967404;28;20452;-73
2024/02/18 16:50:42;;;;;;;;;;;;;;;;;;4985166;28;19929;-73